Time;durP1;ratioP1;P1;durP2;ratioP2;P2;SDS_P1;SDS_P2;PMS_P1;PMS_P2;Temp;Humidity;BMP_temperature;BMP_pressure;BME280_temperature;BME280_humidity;BME280_pressure;Samples;Min_cycle;Max_cycle;Signal;HPM_P1;HPM_P2
2020/12/26 00:02:04;;;;;;;2.10;1.80;;;-1.90;99.90;;;;;;5078288;28;20254;-77
2020/12/26 00:04:30;;;;;;;2.00;1.90;;;-1.90;99.90;;;;;;5079241;28;20209;-77
2020/12/26 00:06:55;;;;;;;1.60;1.50;;;-2.00;99.90;;;;;;5077445;28;20272;-76
2020/12/26 00:09:21;;;;;;;1.60;1.43;;;-2.00;99.90;;;;;;5078909;28;20189;-77
2020/12/26 00:11:46;;;;;;;2.57;1.60;;;-2.00;99.90;;;;;;5077606;28;20196;-76
2020/12/26 00:14:12;;;;;;;2.00;1.37;;;-2.10;99.90;;;;;;5076988;28;20200;-76
2020/12/26 00:16:37;;;;;;;2.03;1.60;;;-2.10;99.90;;;;;;5075583;28;20572;-76
2020/12/26 00:19:03;;;;;;;3.50;1.93;;;-2.10;99.90;;;;;;5077143;28;20193;-76
2020/12/26 00:21:29;;;;;;;1.60;1.50;;;-2.10;99.90;;;;;;5078427;28;20181;-77
2020/12/26 00:23:54;;;;;;;2.53;1.40;;;-2.10;99.90;;;;;;5075107;28;20290;-76
2020/12/26 00:26:20;;;;;;;5.87;2.77;;;-2.00;99.90;;;;;;5077555;28;20595;-76
2020/12/26 00:28:45;;;;;;;2.90;1.37;;;-2.00;99.90;;;;;;5077349;28;20291;-76
2020/12/26 00:31:13;;;;;;;2.27;1.97;;;-2.00;99.90;;;;;;5076721;28;20217;-76
2020/12/26 00:33:38;;;;;;;2.10;1.90;;;-1.90;99.90;;;;;;5076684;28;21003;-76
2020/12/26 00:36:04;;;;;;;2.53;1.30;;;-1.90;99.90;;;;;;5075603;28;20208;-77
2020/12/26 00:38:30;;;;;;;1.30;1.20;;;-1.90;99.90;;;;;;5076553;28;20528;-77
2020/12/26 00:40:55;;;;;;;1.97;1.77;;;-2.00;99.90;;;;;;5076719;28;20224;-76
2020/12/26 00:43:21;;;;;;;1.57;1.30;;;-2.10;99.90;;;;;;5077382;28;20182;-77
2020/12/26 00:45:46;;;;;;;1.97;1.70;;;-2.00;99.90;;;;;;5076342;28;20717;-76
2020/12/26 00:48:12;;;;;;;3.33;1.20;;;-2.10;99.90;;;;;;5077597;28;20195;-77
2020/12/26 00:50:37;;;;;;;1.47;1.17;;;-2.10;99.90;;;;;;5077413;28;20212;-76
2020/12/26 00:53:03;;;;;;;1.87;1.20;;;-2.10;99.90;;;;;;5076623;28;20218;-77
2020/12/26 00:55:29;;;;;;;0.80;0.80;;;-2.20;99.90;;;;;;5075283;28;20276;-77
2020/12/26 00:57:54;;;;;;;2.17;1.57;;;-2.10;99.90;;;;;;5076312;28;20200;-77
2020/12/26 01:00:20;;;;;;;1.23;1.20;;;-2.20;99.90;;;;;;5076166;28;20200;-77
2020/12/26 01:02:46;;;;;;;3.97;1.53;;;-2.20;99.90;;;;;;5076683;28;20642;-76
2020/12/26 01:05:11;;;;;;;2.10;1.60;;;-2.20;99.90;;;;;;5075000;28;20281;-77
2020/12/26 01:07:37;;;;;;;2.03;1.70;;;-2.30;99.90;;;;;;5077257;28;20181;-77
2020/12/26 01:10:05;;;;;;;1.83;1.63;;;-2.30;99.90;;;;;;5077487;28;20316;-77
2020/12/26 01:12:31;;;;;;;2.97;1.60;;;-2.40;99.90;;;;;;5074447;28;20193;-77
2020/12/26 01:14:57;;;;;;;2.00;1.63;;;-2.40;99.90;;;;;;5077422;28;20698;-77
2020/12/26 01:17:23;;;;;;;1.83;1.73;;;-2.40;99.90;;;;;;5077535;28;20251;-76
2020/12/26 01:19:48;;;;;;;1.43;1.33;;;-2.40;99.90;;;;;;5076234;28;20220;-76
2020/12/26 01:22:14;;;;;;;3.03;2.33;;;-2.40;99.90;;;;;;5077884;28;20185;-76
2020/12/26 01:24:41;;;;;;;1.53;1.43;;;-2.40;99.90;;;;;;5075476;28;20636;-76
2020/12/26 01:27:08;;;;;;;1.10;1.10;;;-2.50;99.90;;;;;;5075501;28;20705;-76
2020/12/26 01:29:35;;;;;;;2.13;1.30;;;-2.50;99.90;;;;;;5076948;28;20196;-77
2020/12/26 01:32:00;;;;;;;1.33;1.23;;;-2.50;99.90;;;;;;5077802;28;20651;-77
2020/12/26 01:34:26;;;;;;;1.90;1.80;;;-2.50;99.90;;;;;;5078086;28;20262;-77
2020/12/26 01:36:55;;;;;;;2.50;2.30;;;-2.50;99.90;;;;;;5075053;28;20251;-76
2020/12/26 01:39:22;;;;;;;2.10;1.67;;;-2.50;99.90;;;;;;5077351;28;20199;-77
2020/12/26 01:41:52;;;;;;;1.77;1.37;;;-2.60;99.90;;;;;;5075590;28;20219;-77
2020/12/26 01:44:18;;;;;;;2.43;2.00;;;-2.60;99.90;;;;;;5076077;28;20303;-76
2020/12/26 01:46:46;;;;;;;2.87;2.43;;;-2.60;99.90;;;;;;5074315;28;20203;-77
2020/12/26 01:49:11;;;;;;;1.47;1.30;;;-2.60;99.90;;;;;;5073396;28;20182;-77
2020/12/26 01:51:39;;;;;;;1.70;1.57;;;-2.50;99.90;;;;;;5074380;28;20215;-77
2020/12/26 01:54:04;;;;;;;2.33;2.13;;;-2.50;99.90;;;;;;5073910;28;20184;-77
2020/12/26 01:56:31;;;;;;;4.73;1.97;;;-2.40;99.90;;;;;;5072729;28;20219;-77
2020/12/26 01:58:56;;;;;;;3.70;2.33;;;-2.30;99.90;;;;;;5075010;28;20264;-76
2020/12/26 02:01:42;;;;;;;3.37;2.17;;;-2.20;99.90;;;;;;5073784;28;20292;-76
2020/12/26 02:04:09;;;;;;;2.17;1.53;;;-2.10;99.90;;;;;;5072991;28;20260;-77
2020/12/26 02:06:51;;;;;;;4.50;2.17;;;-2.20;99.90;;;;;;5077793;28;20189;-77
2020/12/26 02:09:52;;;;;;;3.53;2.27;;;-2.20;99.90;;;;;;5079054;28;20204;-77
2020/12/26 02:12:18;;;;;;;3.57;2.10;;;-2.30;99.90;;;;;;5076555;28;20199;-77
2020/12/26 02:14:47;;;;;;;2.03;1.83;;;-2.30;99.90;;;;;;5079258;28;20774;-78
2020/12/26 02:17:13;;;;;;;2.63;1.83;;;-2.30;99.90;;;;;;5078502;28;20738;-77
2020/12/26 02:19:39;;;;;;;1.63;1.33;;;-2.30;99.90;;;;;;5078812;28;20191;-77
2020/12/26 02:22:05;;;;;;;2.43;1.50;;;-2.20;99.90;;;;;;5078510;28;20182;-77
2020/12/26 02:24:31;;;;;;;0.87;0.83;;;-2.10;99.90;;;;;;5077002;28;20842;-77
2020/12/26 02:26:57;;;;;;;1.40;1.30;;;-2.10;99.90;;;;;;5078650;28;20188;-77
2020/12/26 02:29:22;;;;;;;1.97;1.87;;;-2.10;99.90;;;;;;5078136;28;20190;-76
2020/12/26 02:31:48;;;;;;;2.20;1.50;;;-2.10;99.90;;;;;;5077354;28;20188;-76
2020/12/26 02:34:13;;;;;;;1.50;1.07;;;-2.00;99.90;;;;;;5078344;28;20213;-77
2020/12/26 02:36:39;;;;;;;1.53;1.20;;;-1.90;99.90;;;;;;5077642;28;20346;-77
2020/12/26 02:39:07;;;;;;;2.37;1.73;;;-1.90;99.90;;;;;;5077595;28;20245;-77
2020/12/26 02:41:33;;;;;;;1.83;1.37;;;-2.00;99.90;;;;;;5077527;28;20264;-76
2020/12/26 02:43:59;;;;;;;1.27;1.17;;;-2.00;99.90;;;;;;5076576;28;20307;-77
2020/12/26 02:46:24;;;;;;;3.20;2.03;;;-2.10;99.90;;;;;;5076250;28;20193;-78
2020/12/26 02:48:50;;;;;;;1.20;1.10;;;-2.10;99.90;;;;;;5078921;28;20189;-76
2020/12/26 02:51:15;;;;;;;3.83;1.37;;;-2.00;99.90;;;;;;5077796;28;20186;-77
2020/12/26 02:53:41;;;;;;;2.10;1.43;;;-1.90;99.90;;;;;;5078745;28;20700;-76
2020/12/26 02:56:12;;;;;;;2.50;1.20;;;-1.80;99.90;;;;;;5076426;28;20247;-77
2020/12/26 02:58:40;;;;;;;1.20;0.97;;;-1.80;99.90;;;;;;5076671;28;20174;-77
2020/12/26 03:01:07;;;;;;;1.57;1.30;;;-1.70;99.90;;;;;;5076465;28;20271;-77
2020/12/26 03:03:33;;;;;;;1.40;1.30;;;-1.70;99.90;;;;;;5077814;28;20649;-77
2020/12/26 03:05:58;;;;;;;2.77;1.77;;;-1.60;99.90;;;;;;5077803;28;20208;-77
2020/12/26 03:08:24;;;;;;;2.83;1.20;;;-1.50;99.90;;;;;;5078557;28;20182;-77
2020/12/26 03:10:49;;;;;;;3.93;1.87;;;-1.40;99.90;;;;;;5077567;28;20209;-76
2020/12/26 03:13:15;;;;;;;1.20;0.83;;;-1.40;99.90;;;;;;5076657;28;20204;-77
2020/12/26 03:15:41;;;;;;;0.97;0.93;;;-1.30;99.90;;;;;;5077171;28;20217;-77
2020/12/26 03:18:06;;;;;;;2.13;1.50;;;-1.20;99.90;;;;;;5077073;28;20193;-76
2020/12/26 03:20:32;;;;;;;3.80;2.40;;;-1.20;99.90;;;;;;5076973;28;20177;-77
2020/12/26 03:22:57;;;;;;;2.97;2.20;;;-1.20;99.90;;;;;;5076064;28;20212;-76
2020/12/26 03:25:23;;;;;;;2.43;1.33;;;-1.30;99.90;;;;;;5074447;28;20278;-77
2020/12/26 03:27:49;;;;;;;2.93;2.07;;;-1.30;99.90;;;;;;5077954;28;20262;-77
2020/12/26 03:30:14;;;;;;;2.40;1.90;;;-1.40;99.90;;;;;;5077369;28;20185;-77
2020/12/26 03:32:40;;;;;;;4.20;1.63;;;-1.40;99.90;;;;;;5077649;28;20716;-77
2020/12/26 03:35:06;;;;;;;5.13;2.60;;;-1.50;99.90;;;;;;5077906;28;20291;-77
2020/12/26 03:37:34;;;;;;;2.27;1.87;;;-1.50;99.90;;;;;;5076971;28;20209;-77
2020/12/26 03:40:00;;;;;;;1.70;1.50;;;-1.50;99.90;;;;;;5077285;28;20216;-77
2020/12/26 03:42:25;;;;;;;3.93;1.63;;;-1.50;99.90;;;;;;5078028;28;20220;-77
2020/12/26 03:44:51;;;;;;;2.17;1.97;;;-1.40;99.90;;;;;;5076605;28;20822;-77
2020/12/26 03:47:16;;;;;;;1.73;1.47;;;-1.40;99.90;;;;;;5077073;28;20204;-77
2020/12/26 03:49:42;;;;;;;2.80;2.17;;;-1.30;99.90;;;;;;5078377;28;20189;-77
2020/12/26 03:52:07;;;;;;;1.63;1.50;;;-1.20;99.90;;;;;;5077783;28;20553;-77
2020/12/26 03:54:33;;;;;;;2.87;2.00;;;-1.10;99.90;;;;;;5077688;28;20220;-77
2020/12/26 03:56:59;;;;;;;2.43;2.10;;;-1.00;99.90;;;;;;5078186;28;20206;-77
2020/12/26 03:59:24;;;;;;;2.73;1.73;;;-0.90;99.90;;;;;;5078236;28;20203;-77
2020/12/26 04:01:50;;;;;;;2.77;1.50;;;-0.80;99.90;;;;;;5079116;28;20181;-77
2020/12/26 04:04:15;;;;;;;3.40;2.53;;;-0.80;99.90;;;;;;5078174;28;20201;-77
2020/12/26 04:06:43;;;;;;;2.93;1.70;;;-0.80;99.90;;;;;;5079206;28;20184;-77
2020/12/26 04:09:12;;;;;;;2.07;1.87;;;-0.80;99.90;;;;;;5087497;28;20180;-77
2020/12/26 04:11:38;;;;;;;1.73;1.60;;;-0.80;99.90;;;;;;5085577;28;20185;-76
2020/12/26 04:14:04;;;;;;;2.27;1.50;;;-0.80;99.90;;;;;;5077726;28;20196;-77
2020/12/26 04:16:30;;;;;;;2.30;2.10;;;-0.80;99.90;;;;;;5077483;28;20216;-76
2020/12/26 04:18:57;;;;;;;1.93;1.43;;;-0.80;99.90;;;;;;5075704;28;20642;-76
2020/12/26 04:21:23;;;;;;;2.23;2.03;;;-0.80;99.90;;;;;;5076357;28;20181;-76
2020/12/26 04:23:50;;;;;;;2.40;2.20;;;-0.80;99.90;;;;;;5074691;28;20181;-77
2020/12/26 04:26:15;;;;;;;3.57;2.70;;;-0.80;99.90;;;;;;5075458;28;20213;-76
2020/12/26 04:28:41;;;;;;;2.93;2.33;;;-0.80;99.90;;;;;;5075526;28;20188;-76
2020/12/26 04:31:07;;;;;;;2.27;2.07;;;-0.70;99.90;;;;;;5076577;28;20185;-77
2020/12/26 04:33:32;;;;;;;2.13;1.77;;;-0.70;99.90;;;;;;5075653;28;20185;-77
2020/12/26 04:36:02;;;;;;;2.33;2.13;;;-0.60;99.90;;;;;;5075079;28;20223;-77
2020/12/26 04:38:28;;;;;;;2.83;2.00;;;-0.70;99.90;;;;;;5076727;28;20256;-77
2020/12/26 04:40:53;;;;;;;2.37;2.17;;;-0.60;99.90;;;;;;5076312;28;20315;-77
2020/12/26 04:43:19;;;;;;;3.67;2.50;;;-0.60;99.90;;;;;;5073033;28;20608;-77
2020/12/26 04:45:45;;;;;;;3.97;2.13;;;-0.50;99.90;;;;;;5075011;28;20197;-76
2020/12/26 04:48:16;;;;;;;3.13;2.17;;;-0.50;99.90;;;;;;5075701;28;20712;-76
2020/12/26 04:50:47;;;;;;;2.33;2.13;;;-0.40;99.90;;;;;;5077283;28;20528;-77
2020/12/26 04:53:16;;;;;;;2.23;1.73;;;-0.40;99.90;;;;;;5074805;28;20744;-77
2020/12/26 04:55:49;;;;;;;1.93;1.60;;;-0.40;99.90;;;;;;5074732;28;20284;-77
2020/12/26 04:58:16;;;;;;;3.53;2.53;;;-0.30;99.90;;;;;;5076118;28;20189;-76
2020/12/26 05:00:43;;;;;;;1.80;1.70;;;-0.30;99.90;;;;;;5076900;28;20174;-77
2020/12/26 05:03:12;;;;;;;2.47;1.90;;;-0.30;99.90;;;;;;5076929;28;20187;-77
2020/12/26 05:05:43;;;;;;;2.20;2.00;;;-0.30;99.90;;;;;;5077985;28;20289;-76
2020/12/26 05:08:14;;;;;;;2.63;2.30;;;-0.20;99.90;;;;;;5076391;28;20844;-77
2020/12/26 05:10:41;;;;;;;2.53;1.83;;;-0.20;99.90;;;;;;5076479;28;20189;-76
2020/12/26 05:13:09;;;;;;;3.33;2.60;;;-0.10;99.90;;;;;;5076259;28;20211;-76
2020/12/26 05:15:34;;;;;;;2.27;1.77;;;-0.10;99.90;;;;;;5074790;28;20274;-77
2020/12/26 05:18:01;;;;;;;1.90;1.80;;;-0.10;99.90;;;;;;5075072;28;20205;-76
2020/12/26 05:20:27;;;;;;;3.10;2.17;;;0.00;99.90;;;;;;5075057;28;20186;-76
2020/12/26 05:23:15;;;;;;;2.73;2.23;;;0.00;99.90;;;;;;5075249;28;20189;-76
2020/12/26 05:25:49;;;;;;;2.37;1.90;;;0.10;99.90;;;;;;5076368;28;20208;-77
2020/12/26 05:28:17;;;;;;;3.00;2.40;;;0.10;99.90;;;;;;5076755;28;20195;-76
2020/12/26 05:30:49;;;;;;;4.00;2.40;;;0.20;99.90;;;;;;5075844;28;20185;-77
2020/12/26 05:33:15;;;;;;;2.30;2.10;;;0.20;99.90;;;;;;5077788;28;20251;-76
2020/12/26 05:35:51;;;;;;;4.17;2.33;;;0.30;99.90;;;;;;5075085;28;20739;-77
2020/12/26 05:38:22;;;;;;;4.63;1.87;;;0.30;99.90;;;;;;5075185;28;20204;-76
2020/12/26 05:40:50;;;;;;;2.50;2.30;;;0.30;99.90;;;;;;5077359;28;20272;-76
2020/12/26 05:43:20;;;;;;;1.83;1.63;;;0.40;99.90;;;;;;5080314;28;20172;-76
2020/12/26 05:45:47;;;;;;;2.40;2.13;;;0.30;99.90;;;;;;5079228;28;20206;-77
2020/12/26 05:48:15;;;;;;;3.50;3.13;;;0.30;99.90;;;;;;5079126;28;20367;-76
2020/12/26 05:50:41;;;;;;;2.63;2.43;;;0.40;99.90;;;;;;5094665;28;20188;-77
2020/12/26 05:53:08;;;;;;;3.30;2.70;;;0.40;99.90;;;;;;5080008;28;20188;-77
2020/12/26 05:55:42;;;;;;;2.87;2.07;;;0.40;99.90;;;;;;5076930;28;20244;-76
2020/12/26 05:58:08;;;;;;;3.80;2.67;;;0.50;99.90;;;;;;5080239;28;20219;-77
2020/12/26 06:00:39;;;;;;;2.33;2.00;;;0.50;99.90;;;;;;5080199;28;20201;-75
2020/12/26 06:03:21;;;;;;;2.80;2.60;;;0.40;99.90;;;;;;5077234;28;20178;-77
2020/12/26 06:05:48;;;;;;;3.27;2.23;;;0.50;99.90;;;;;;5079256;28;20264;-77
2020/12/26 06:08:15;;;;;;;3.10;2.83;;;0.60;99.90;;;;;;5079148;28;20658;-77
2020/12/26 06:10:47;;;;;;;8.97;2.40;;;0.80;99.90;;;;;;5079609;28;20558;-77
2020/12/26 06:13:15;;;;;;;3.20;2.63;;;0.80;99.90;;;;;;5079515;28;20188;-77
2020/12/26 06:15:48;;;;;;;5.13;3.10;;;0.80;99.90;;;;;;5078451;28;20854;-76
2020/12/26 06:18:16;;;;;;;4.93;2.90;;;0.90;99.90;;;;;;5077832;28;20185;-77
2020/12/26 06:20:42;;;;;;;3.10;2.53;;;0.90;99.90;;;;;;5078581;28;20215;-77
2020/12/26 06:23:15;;;;;;;1.97;1.80;;;0.80;99.90;;;;;;5079564;28;20189;-76
2020/12/26 06:25:43;;;;;;;2.10;1.77;;;0.80;99.90;;;;;;5079863;28;20207;-76
2020/12/26 06:28:25;;;;;;;3.60;2.53;;;0.80;99.90;;;;;;5077477;28;20584;-77
2020/12/26 06:30:54;;;;;;;3.37;2.73;;;0.80;99.90;;;;;;5080087;28;20165;-77
2020/12/26 06:33:25;;;;;;;2.53;2.20;;;0.80;99.90;;;;;;5078418;28;20253;-79
2020/12/26 06:35:52;;;;;;;3.27;2.60;;;0.80;99.90;;;;;;5077821;28;20216;-77
2020/12/26 06:38:23;;;;;;;2.70;2.50;;;0.90;99.90;;;;;;5077510;28;20197;-76
2020/12/26 06:41:13;;;;;;;2.70;2.33;;;0.80;99.90;;;;;;5094335;28;20646;-77
2020/12/26 06:43:57;;;;;;;2.70;2.50;;;0.90;99.90;;;;;;5078915;28;20278;-77
2020/12/26 06:46:23;;;;;;;2.80;2.03;;;1.00;99.90;;;;;;5077195;28;20244;-77
2020/12/26 06:48:50;;;;;;;4.10;2.73;;;0.90;99.90;;;;;;5077997;28;20221;-79
2020/12/26 06:51:25;;;;;;;1.97;1.77;;;0.90;99.90;;;;;;5078817;28;20184;-78
2020/12/26 06:53:52;;;;;;;2.73;2.30;;;0.90;99.90;;;;;;5078376;28;20214;-79
2020/12/26 06:56:35;;;;;;;2.90;2.50;;;0.90;99.90;;;;;;5078831;28;20208;-77
2020/12/26 06:59:08;;;;;;;2.70;2.47;;;0.90;99.90;;;;;;5078193;28;20188;-77
2020/12/26 07:01:35;;;;;;;3.33;2.17;;;0.90;99.90;;;;;;5085924;28;20185;-77
2020/12/26 07:04:07;;;;;;;4.10;3.00;;;1.00;99.90;;;;;;5077906;28;20185;-77
2020/12/26 07:06:53;;;;;;;2.67;2.27;;;1.00;99.90;;;;;;5077788;28;20200;-78
2020/12/26 07:09:35;;;;;;;4.13;2.80;;;1.00;99.90;;;;;;5077380;28;20274;-79
2020/12/26 07:12:00;;;;;;;3.13;2.07;;;1.00;99.90;;;;;;5079505;28;20185;-78
2020/12/26 07:14:34;;;;;;;2.87;2.57;;;1.10;99.90;;;;;;5076720;28;20326;-78
2020/12/26 07:17:02;;;;;;;3.03;2.60;;;1.00;99.90;;;;;;5078419;28;20217;-76
2020/12/26 07:19:32;;;;;;;3.47;2.43;;;1.00;99.90;;;;;;5076364;28;20181;-77
2020/12/26 07:22:16;;;;;;;3.17;2.77;;;0.90;99.90;;;;;;5078392;28;20181;-77
2020/12/26 07:24:44;;;;;;;6.37;2.53;;;0.90;99.90;;;;;;5080212;28;21107;-77
2020/12/26 07:27:14;;;;;;;2.33;2.13;;;1.00;99.90;;;;;;5078467;28;20192;-78
2020/12/26 07:30:05;;;;;;;3.20;2.67;;;0.90;99.90;;;;;;5079454;28;20828;-78
2020/12/26 07:35:11;;;;;;;4.87;3.30;;;1.00;99.90;;;;;;5080576;28;20213;-77
2020/12/26 07:37:38;;;;;;;3.57;2.50;;;1.00;99.90;;;;;;5077593;28;20200;-77
2020/12/26 07:40:05;;;;;;;5.87;3.07;;;1.00;99.90;;;;;;5077348;28;20181;-77
2020/12/26 07:42:31;;;;;;;4.13;2.63;;;1.00;99.90;;;;;;5078025;28;20181;-77
2020/12/26 07:44:57;;;;;;;3.10;2.43;;;1.00;99.90;;;;;;5080975;28;20190;-78
2020/12/26 07:47:24;;;;;;;4.03;3.17;;;1.10;99.90;;;;;;5078080;28;20196;-77
2020/12/26 07:49:58;;;;;;;3.00;2.27;;;1.10;99.90;;;;;;5080776;28;20322;-77
2020/12/26 07:52:24;;;;;;;2.93;2.27;;;1.20;99.90;;;;;;5078953;28;20250;-76
2020/12/26 07:54:59;;;;;;;2.97;2.67;;;1.20;99.90;;;;;;5076501;28;20757;-77
2020/12/26 07:57:28;;;;;;;3.33;2.03;;;1.30;99.90;;;;;;5079188;28;20207;-78
2020/12/26 07:59:54;;;;;;;2.90;2.33;;;1.30;99.90;;;;;;5078872;28;20187;-77
2020/12/26 08:02:20;;;;;;;4.20;2.50;;;1.40;99.90;;;;;;5076994;28;20263;-76
2020/12/26 08:04:47;;;;;;;1.80;1.67;;;1.40;99.90;;;;;;5078089;28;20205;-76
2020/12/26 08:07:17;;;;;;;4.57;2.20;;;1.40;99.90;;;;;;5079475;28;20188;-77
2020/12/26 08:09:52;;;;;;;2.53;2.03;;;1.50;99.90;;;;;;5077871;28;21033;-77
2020/12/26 08:12:18;;;;;;;2.80;1.53;;;1.50;99.90;;;;;;5080364;28;20259;-76
2020/12/26 08:14:44;;;;;;;2.47;2.27;;;1.40;99.90;;;;;;5077806;28;20235;-77
2020/12/26 08:17:10;;;;;;;2.67;1.70;;;1.50;99.90;;;;;;5078158;28;20216;-77
2020/12/26 08:19:37;;;;;;;2.97;2.20;;;1.60;99.90;;;;;;5078417;28;20184;-77
2020/12/26 08:22:03;;;;;;;5.00;2.57;;;1.70;99.90;;;;;;5078923;28;20245;-76
2020/12/26 08:24:29;;;;;;;4.40;2.83;;;1.60;99.90;;;;;;5076347;28;20211;-77
2020/12/26 08:26:56;;;;;;;3.63;2.47;;;1.70;99.90;;;;;;5075068;28;20295;-76
2020/12/26 08:29:31;;;;;;;2.47;1.77;;;1.70;99.90;;;;;;5077711;28;20191;-76
2020/12/26 08:32:08;;;;;;;3.07;2.40;;;1.70;99.90;;;;;;5077130;28;20176;-77
2020/12/26 08:34:49;;;;;;;2.33;2.10;;;1.80;99.90;;;;;;5076676;28;20220;-77
2020/12/26 08:37:24;;;;;;;3.50;2.63;;;1.80;99.90;;;;;;5080735;28;20757;-75
2020/12/26 08:40:01;;;;;;;2.57;2.37;;;1.80;99.90;;;;;;5077742;28;20651;-76
2020/12/26 08:42:30;;;;;;;2.80;2.30;;;1.90;99.90;;;;;;5077987;28;20631;-77
2020/12/26 08:44:56;;;;;;;3.83;3.33;;;1.80;99.90;;;;;;5073033;28;20262;-77
2020/12/26 08:47:32;;;;;;;3.60;2.87;;;1.80;99.90;;;;;;5074137;28;20184;-76
2020/12/26 08:49:58;;;;;;;3.83;2.80;;;1.80;99.90;;;;;;5076927;28;20215;-78
2020/12/26 08:52:27;;;;;;;2.17;1.80;;;1.80;99.90;;;;;;5077508;28;20267;-76
2020/12/26 08:55:09;;;;;;;2.60;1.70;;;1.80;99.90;;;;;;5076905;28;20283;-77
2020/12/26 08:57:36;;;;;;;2.50;1.70;;;1.80;99.90;;;;;;5077054;28;20201;-78
2020/12/26 09:00:20;;;;;;;2.80;2.13;;;1.80;99.90;;;;;;5076007;28;20182;-76
2020/12/26 09:02:50;;;;;;;2.43;1.90;;;1.90;99.90;;;;;;5075459;28;20646;-77
2020/12/26 09:05:28;;;;;;;2.50;2.30;;;1.90;99.90;;;;;;5075687;28;20209;-76
2020/12/26 09:08:03;;;;;;;4.23;2.67;;;1.90;99.90;;;;;;5076243;28;20766;-77
2020/12/26 09:10:29;;;;;;;2.13;1.67;;;1.90;99.90;;;;;;5076745;28;20220;-77
2020/12/26 09:13:05;;;;;;;3.37;1.80;;;1.90;99.90;;;;;;5076628;28;20193;-77
2020/12/26 09:15:51;;;;;;;3.10;2.60;;;2.00;99.90;;;;;;5074374;28;20220;-76
2020/12/26 09:18:27;;;;;;;2.87;1.90;;;2.00;99.90;;;;;;5074074;28;20237;-76
2020/12/26 09:20:57;;;;;;;2.70;2.10;;;2.10;99.90;;;;;;5072492;28;20659;-76
2020/12/26 09:23:25;;;;;;;1.70;1.60;;;2.10;99.90;;;;;;5073152;28;20169;-76
2020/12/26 09:25:51;;;;;;;2.27;1.60;;;2.10;99.90;;;;;;5070617;28;20202;-76
2020/12/26 09:28:17;;;;;;;2.23;1.87;;;2.20;99.90;;;;;;5073494;28;20553;-76
2020/12/26 09:30:43;;;;;;;2.73;2.30;;;2.30;99.90;;;;;;5072880;28;20193;-76
2020/12/26 09:33:09;;;;;;;2.33;1.97;;;2.30;99.90;;;;;;5073081;28;20182;-74
2020/12/26 09:35:35;;;;;;;2.43;2.03;;;2.40;99.90;;;;;;5071544;28;20981;-76
2020/12/26 09:38:01;;;;;;;3.33;1.80;;;2.50;99.90;;;;;;5073429;28;20292;-77
2020/12/26 09:40:33;;;;;;;3.47;2.33;;;2.50;99.90;;;;;;5072481;28;20550;-76
2020/12/26 09:42:58;;;;;;;2.80;2.57;;;2.70;99.90;;;;;;5080429;28;20178;-76
2020/12/26 09:45:24;;;;;;;2.57;2.17;;;2.80;99.90;;;;;;5071135;28;20201;-76
2020/12/26 09:47:50;;;;;;;4.63;2.97;;;2.90;99.90;;;;;;5073613;28;20190;-77
2020/12/26 09:50:15;;;;;;;3.87;2.47;;;2.90;99.90;;;;;;5074718;28;20185;-76
2020/12/26 09:52:42;;;;;;;2.93;2.63;;;2.90;99.90;;;;;;5071392;28;20227;-74
2020/12/26 09:55:09;;;;;;;2.27;1.83;;;3.00;99.90;;;;;;5072326;28;20212;-76
2020/12/26 09:57:34;;;;;;;3.20;2.23;;;3.10;99.90;;;;;;5072919;28;20714;-76
2020/12/26 10:00:00;;;;;;;2.63;2.10;;;3.10;99.90;;;;;;5075300;28;20181;-76
2020/12/26 10:02:25;;;;;;;1.90;1.70;;;3.10;99.90;;;;;;5073572;28;20654;-77
2020/12/26 10:04:51;;;;;;;2.27;1.93;;;3.20;99.90;;;;;;5074238;28;20277;-77
2020/12/26 10:07:20;;;;;;;2.10;1.83;;;3.20;99.90;;;;;;5072343;28;20669;-77
2020/12/26 10:09:46;;;;;;;2.83;2.53;;;3.10;99.90;;;;;;5073314;28;20186;-77
2020/12/26 10:12:12;;;;;;;2.60;2.00;;;3.20;99.90;;;;;;5072253;28;20226;-77
2020/12/26 10:14:37;;;;;;;3.00;2.70;;;3.20;99.90;;;;;;5074893;28;20846;-77
2020/12/26 10:17:03;;;;;;;3.53;2.50;;;3.20;99.90;;;;;;5073937;28;21175;-76
2020/12/26 10:19:28;;;;;;;3.53;2.43;;;3.20;99.90;;;;;;5072684;28;20215;-76
2020/12/26 10:21:54;;;;;;;2.63;2.43;;;3.20;99.90;;;;;;5071459;28;20181;-77
2020/12/26 10:24:20;;;;;;;3.07;2.10;;;3.20;99.90;;;;;;5079800;28;20204;-76
2020/12/26 10:26:45;;;;;;;3.53;3.03;;;3.20;99.90;;;;;;5078977;28;20241;-76
2020/12/26 10:29:11;;;;;;;2.80;2.30;;;3.20;99.90;;;;;;5080981;28;21203;-75
2020/12/26 10:31:36;;;;;;;3.27;2.67;;;3.30;99.90;;;;;;5078671;28;20186;-75
2020/12/26 10:34:02;;;;;;;2.43;2.23;;;3.20;99.90;;;;;;5078400;28;20197;-75
2020/12/26 10:36:27;;;;;;;3.17;1.93;;;3.20;99.90;;;;;;5079893;28;20206;-76
2020/12/26 10:38:53;;;;;;;2.63;2.43;;;3.20;99.90;;;;;;5079168;28;20264;-76
2020/12/26 10:41:18;;;;;;;3.50;2.57;;;3.20;99.90;;;;;;5077736;28;20216;-76
2020/12/26 10:43:44;;;;;;;3.47;2.53;;;3.30;99.90;;;;;;5075441;28;20323;-77
2020/12/26 10:46:09;;;;;;;3.23;2.47;;;3.40;99.90;;;;;;5079371;28;20288;-75
2020/12/26 10:48:35;;;;;;;2.83;2.30;;;3.60;99.90;;;;;;5078204;28;20242;-77
2020/12/26 10:51:01;;;;;;;3.17;2.80;;;3.70;99.90;;;;;;5076864;28;20193;-76
2020/12/26 10:53:26;;;;;;;4.23;2.13;;;3.70;99.90;;;;;;5076991;28;20191;-77
2020/12/26 10:55:52;;;;;;;2.63;2.40;;;3.90;99.90;;;;;;5077526;28;20209;-77
2020/12/26 10:58:17;;;;;;;3.23;2.53;;;3.80;99.90;;;;;;5078122;28;20216;-76
2020/12/26 11:00:43;;;;;;;3.43;2.30;;;3.80;99.90;;;;;;5074534;28;20195;-77
2020/12/26 11:03:09;;;;;;;2.73;2.47;;;3.70;99.90;;;;;;5077148;28;20193;-77
2020/12/26 11:05:34;;;;;;;2.93;2.20;;;3.70;99.90;;;;;;5078115;28;20342;-76
2020/12/26 11:08:00;;;;;;;2.73;2.40;;;3.80;99.90;;;;;;5077846;28;20193;-76
2020/12/26 11:10:25;;;;;;;2.30;2.13;;;3.80;99.90;;;;;;5075263;28;20185;-76
2020/12/26 11:12:51;;;;;;;5.63;2.80;;;3.90;99.90;;;;;;5076335;28;20195;-76
2020/12/26 11:15:17;;;;;;;4.37;2.93;;;3.90;99.90;;;;;;5075230;28;20229;-76
2020/12/26 11:17:42;;;;;;;4.53;2.80;;;4.00;99.90;;;;;;5074913;28;20208;-76
2020/12/26 11:20:09;;;;;;;3.00;2.27;;;3.90;99.90;;;;;;5074837;28;20647;-77
2020/12/26 11:22:34;;;;;;;2.87;2.60;;;3.90;99.90;;;;;;5072881;28;20305;-77
2020/12/26 11:25:00;;;;;;;1.83;1.67;;;3.90;99.90;;;;;;5073176;28;20284;-76
2020/12/26 11:27:26;;;;;;;3.80;2.43;;;3.90;99.90;;;;;;5073844;28;20200;-77
2020/12/26 11:29:53;;;;;;;3.70;2.60;;;3.90;99.90;;;;;;5076536;28;20185;-77
2020/12/26 11:32:19;;;;;;;5.87;2.30;;;3.90;99.90;;;;;;5073749;28;20245;-76
2020/12/26 11:34:45;;;;;;;2.60;2.23;;;3.90;99.90;;;;;;5077159;28;20248;-76
2020/12/26 11:37:11;;;;;;;4.17;2.50;;;3.90;99.90;;;;;;5072741;28;20292;-76
2020/12/26 11:39:36;;;;;;;4.50;3.10;;;3.90;99.90;;;;;;5072469;28;20754;-76
2020/12/26 11:42:02;;;;;;;3.40;2.53;;;3.90;99.90;;;;;;5076437;28;20185;-76
2020/12/26 11:44:28;;;;;;;2.40;1.97;;;3.90;99.90;;;;;;5072295;28;20196;-76
2020/12/26 11:47:00;;;;;;;2.87;2.10;;;3.90;99.90;;;;;;5075641;28;20189;-76
2020/12/26 11:49:26;;;;;;;2.67;2.13;;;3.80;99.90;;;;;;5072591;28;20186;-76
2020/12/26 11:51:53;;;;;;;4.03;2.00;;;3.90;99.90;;;;;;5073321;28;20185;-76
2020/12/26 11:54:21;;;;;;;5.27;2.30;;;3.90;99.90;;;;;;5075458;28;20212;-76
2020/12/26 11:56:47;;;;;;;2.30;2.10;;;3.90;99.90;;;;;;5074442;28;20287;-76
2020/12/26 11:59:12;;;;;;;2.20;1.90;;;3.90;99.90;;;;;;5075392;28;20205;-75
2020/12/26 12:01:38;;;;;;;2.13;1.60;;;4.00;99.90;;;;;;5076514;28;20211;-76
2020/12/26 12:04:03;;;;;;;1.93;1.67;;;4.00;99.90;;;;;;5073878;28;20198;-76
2020/12/26 12:06:29;;;;;;;1.93;1.23;;;3.90;99.90;;;;;;5075599;28;20181;-76
2020/12/26 12:08:55;;;;;;;2.07;1.43;;;4.00;99.90;;;;;;5073787;28;20659;-76
2020/12/26 12:11:20;;;;;;;2.63;1.87;;;3.90;99.90;;;;;;5073836;28;20724;-76
2020/12/26 12:13:47;;;;;;;2.03;1.37;;;3.90;99.90;;;;;;5074926;28;20620;-76
2020/12/26 12:16:14;;;;;;;1.27;1.17;;;3.90;99.90;;;;;;5073288;28;20209;-76
2020/12/26 12:18:39;;;;;;;1.50;1.40;;;3.80;99.90;;;;;;5076157;28;20191;-75
2020/12/26 12:21:05;;;;;;;2.70;1.87;;;3.80;99.90;;;;;;5074338;28;20189;-75
2020/12/26 12:23:31;;;;;;;3.30;2.37;;;3.80;99.90;;;;;;5071406;28;20189;-77
2020/12/26 12:25:56;;;;;;;2.73;1.63;;;3.80;99.90;;;;;;5072808;28;20217;-76
2020/12/26 12:28:22;;;;;;;3.23;1.90;;;3.80;99.90;;;;;;5072296;28;20220;-76
2020/12/26 12:30:47;;;;;;;1.97;1.33;;;3.90;99.90;;;;;;5072077;28;20639;-75
2020/12/26 12:33:13;;;;;;;1.27;1.17;;;3.90;99.90;;;;;;5069425;28;20215;-76
2020/12/26 12:35:39;;;;;;;1.73;1.50;;;3.80;99.90;;;;;;5072469;28;20209;-76
2020/12/26 12:38:04;;;;;;;1.77;1.60;;;3.80;99.90;;;;;;5072966;28;20265;-76
2020/12/26 12:40:30;;;;;;;3.00;2.07;;;3.90;99.90;;;;;;5072183;28;20555;-76
2020/12/26 12:42:55;;;;;;;2.30;1.73;;;3.90;99.90;;;;;;5072276;28;20176;-75
2020/12/26 12:45:21;;;;;;;1.23;1.13;;;3.90;99.90;;;;;;5067681;28;20263;-76
2020/12/26 12:47:46;;;;;;;1.37;1.20;;;3.90;99.90;;;;;;5073813;28;20189;-76
2020/12/26 12:50:12;;;;;;;1.63;1.47;;;3.90;99.90;;;;;;5075451;28;20274;-76
2020/12/26 12:52:39;;;;;;;2.23;1.50;;;3.90;99.90;;;;;;5073751;28;20219;-76
2020/12/26 12:55:05;;;;;;;1.40;1.30;;;3.90;99.90;;;;;;5070906;28;20864;-76
2020/12/26 12:57:31;;;;;;;4.10;1.90;;;3.90;99.90;;;;;;5071597;28;20212;-76
2020/12/26 12:59:57;;;;;;;5.17;1.63;;;3.90;99.90;;;;;;5073483;28;20189;-76